Bainbridge Island, WA

5:38 AM PDT on September 21, 2014 (GMT -0700)
Ferncliff (Waterfront) | Change Station
CLOSE
Current Station
Personal Weather Station
Location: Bainbridge Island, WA
Elevation: 100 ft
Nearby Weather Stations

Elev 100 ft 47.64 °N, 122.51 °W | Updated 4 seconds ago

Clear
Clear
55.0 °F
Feels Like 55.0 °F
N
0.0
Wind Variable Wind from SSW
Gusts 2.0 mph

Today
High -- | Low -- °F
--% Chance of Precip.
Yesterday
High -- | Low -- °F
Precip. -- in
6:55 AM 7:09 PM
Waning Crescent, 7% visible
Pressure 29.86 in
Visibility 10.0 miles
Clouds Clear
Dew Point 54 °F
Humidity 95%
Rainfall 0.00 in
Snow Depth 0 in , 0 in , 0 in
UV 0.0 out of 12
Pollen 2.30 out of 12
Air Quality Not available.
Flu Activity Not available.
METAR KBFI 211153Z 00000KT 10SM CLR 16/12 A2985 RMK AO2 SLP109 T01560122 10183 20156 56006

More Conditions Fewer Conditions

Pressure 29.86 in
Visibility 10.0 miles
Clouds Clear
Dew Point 54 °F
Humidity 95%
Rainfall 0.00 in
Snow Depth 0 in , 0 in , 0 in
UV 0.0 out of 12
Pollen 2.30 out of 12
Air Quality Not available.
Flu Activity Not available.
METAR KBFI 211153Z 00000KT 10SM CLR 16/12 A2985 RMK AO2 SLP109 T01560122 10183 20156 56006

More Conditions Fewer Conditions

10-Day Weather Forecast

Almanac

Astronomy

Sep. 21, 2014 Rise Set
Actual Time 6:55 AM PDT 7:09 PM PDT
Civil Twilight 6:24 AM PDT 7:40 PM PDT
Nautical Twilight 5:48 AM PDT 8:16 PM PDT
Astronomical Twilight 5:10 AM PDT 8:54 PM PDT
Moon 4:26 AM PDT 5:54 PM PDT
Length of Visible Light 13h 15m
Length of Day
12h 14m
Tomorrow will be 3m 25s shorter.
Waning Crescent, 7% of the Moon is Illuminated
Today
Waning Crescent
Sep 24
New
Oct 1
First Quarter
Oct 8
Full
Oct 15
Last Quarter

Today's Extremes

State Highs State Lows

Community

WunderPhotos

Upload Photos

1,755,127 photos uploaded!

Nearby

Snow Depth

Station Depth Elevation
Park Creek Ridge 0 in 4600 ft
Burnt Mountain 0 in 4200 ft
Skookum Creek 0 in 3920 ft
Spirit Lake 0 in 3120 ft
Quartz Peak 1 in 4700 ft

Earthquake Activity

City Distance Mag. Time & Date
No recent earthquake activity has been reported nearby.
Minimum magnitude displayed is 2.5.

Coastal Water Temperatures

Place Temperature
Port Townsend, WA 52.0 °F
Seattle, WA 55.9 °F
Friday Harbor, WA 52.0 °F
Tacoma, WA 55.9 °F

Nearby Weather Stations